createdAt,value
2023-05-11T00:00:32.407Z,22.00
2023-05-11T00:01:35.769Z,23.40
2023-05-11T00:02:37.907Z,22.50
2023-05-11T00:03:40.095Z,23.80
2023-05-11T00:04:42.783Z,23.90
2023-05-11T00:05:48.187Z,22.70
2023-05-11T00:06:50.416Z,23.70
2023-05-11T00:07:52.979Z,22.78
2023-05-11T00:08:55.425Z,22.90
2023-05-11T00:09:57.720Z,22.60
2023-05-11T00:11:00.059Z,23.80
2023-05-11T00:12:02.628Z,22.20
2023-05-11T00:13:04.841Z,14.70
2023-05-11T00:14:07.004Z,22.90
2023-05-11T00:15:09.676Z,22.70
2023-05-11T00:16:12.042Z,22.80
2023-05-11T00:17:14.340Z,23.00
2023-05-11T00:18:16.408Z,22.40
2023-05-11T00:19:18.698Z,24.20
2023-05-11T00:20:21.032Z,23.50
2023-05-11T00:21:23.409Z,22.80
2023-05-11T00:22:25.676Z,24.00
2023-05-11T00:23:28.168Z,22.70
2023-05-11T00:24:30.428Z,23.30
2023-05-11T00:25:32.441Z,13.78
2023-05-11T00:26:34.668Z,22.40
2023-05-11T00:27:37.034Z,22.60
2023-05-11T00:28:39.229Z,21.70
2023-05-11T00:29:41.503Z,21.20
2023-05-11T00:30:43.908Z,21.30
2023-05-11T00:31:46.578Z,22.90
2023-05-11T00:32:50.139Z,22.70
2023-05-11T00:33:53.318Z,21.60
2023-05-11T00:34:56.068Z,20.90
2023-05-11T00:35:59.264Z,22.90
2023-05-11T00:37:01.823Z,20.90
2023-05-11T00:38:04.018Z,21.00
2023-05-11T00:39:06.232Z,21.67
2023-05-11T00:40:09.256Z,21.30
2023-05-11T00:41:11.700Z,20.10
2023-05-11T00:42:14.005Z,21.50
2023-05-11T00:43:17.505Z,21.80
2023-05-11T00:44:19.607Z,19.70
2023-05-11T00:45:22.121Z,20.30
2023-05-11T00:46:24.439Z,21.00
2023-05-11T00:47:27.336Z,20.30
2023-05-11T00:48:29.700Z,20.30
2023-05-11T00:49:32.984Z,19.80
2023-05-11T00:50:35.413Z,19.70
2023-05-11T00:51:38.824Z,20.10
2023-05-11T00:52:41.474Z,19.20
2023-05-11T00:53:44.182Z,19.70
2023-05-11T00:54:47.365Z,21.50
2023-05-11T00:55:49.731Z,18.90
2023-05-11T00:56:52.377Z,21.30
2023-05-11T00:57:55.024Z,18.60
2023-05-11T00:58:57.883Z,21.20
2023-05-11T01:00:02.077Z,21.10
2023-05-11T01:01:05.131Z,19.20
2023-05-11T01:02:07.888Z,19.10
2023-05-11T01:03:10.731Z,16.70
2023-05-11T01:04:13.294Z,20.70
2023-05-11T01:05:15.961Z,19.00
2023-05-11T01:06:24.816Z,20.00
2023-05-11T01:07:50.516Z,20.00
2023-05-11T01:10:15.167Z,20.50
2023-05-11T01:12:51.728Z,20.20
2023-05-11T01:15:24.314Z,20.80
2023-05-11T01:16:31.160Z,19.80
2023-05-11T01:17:43.183Z,18.60
2023-05-11T01:20:13.887Z,20.00
2023-05-11T01:21:17.347Z,16.80
2023-05-11T01:23:51.230Z,21.00
2023-05-11T01:26:35.949Z,20.20
2023-05-11T01:28:01.920Z,19.80
2023-05-11T01:29:30.213Z,18.20
2023-05-11T01:31:53.690Z,18.90
2023-05-11T01:32:59.143Z,18.70
2023-05-11T01:34:04.934Z,16.40
2023-05-11T01:36:26.027Z,14.70
2023-05-11T01:37:31.915Z,17.80
2023-05-11T01:38:37.710Z,16.60
2023-05-11T01:39:46.894Z,14.00
2023-05-11T01:40:52.749Z,17.70
2023-05-11T01:41:57.859Z,14.40
2023-05-11T01:44:13.132Z,15.70
2023-05-11T01:45:18.338Z,17.80
2023-05-11T01:46:24.492Z,14.70
2023-05-11T01:47:29.407Z,14.20
2023-05-11T01:48:35.089Z,15.50
2023-05-11T01:49:40.008Z,15.60
2023-05-11T01:50:43.728Z,14.00
2023-05-11T01:52:57.244Z,17.80
2023-05-11T01:54:01.895Z,15.00
2023-05-11T01:55:06.787Z,16.60
2023-05-11T01:56:13.731Z,16.30
2023-05-11T01:57:17.354Z,16.10
2023-05-11T01:58:22.911Z,12.20
2023-05-11T01:59:27.541Z,15.00
2023-05-11T02:00:32.603Z,14.50
2023-05-11T02:01:35.083Z,15.50
2023-05-11T02:02:37.600Z,14.40
2023-05-11T02:03:42.900Z,13.90
2023-05-11T02:04:46.474Z,14.10
2023-05-11T02:05:51.015Z,13.70
2023-05-11T02:06:56.278Z,14.50
2023-05-11T02:08:01.516Z,14.60
2023-05-11T02:09:06.759Z,14.00
2023-05-11T02:10:11.238Z,15.00
2023-05-11T02:11:15.388Z,15.10
2023-05-11T02:12:19.654Z,13.70
2023-05-11T02:13:24.086Z,16.20
2023-05-11T02:14:28.981Z,14.00
2023-05-11T02:15:33.398Z,16.00
2023-05-11T02:16:37.135Z,15.10
2023-05-11T02:17:40.482Z,16.00
2023-05-11T02:18:43.933Z,17.60
2023-05-11T02:19:47.438Z,16.30
2023-05-11T02:20:51.165Z,15.60
2023-05-11T02:21:55.555Z,16.40
2023-05-11T02:22:59.466Z,14.70
2023-05-11T02:24:04.878Z,14.70
2023-05-11T02:25:09.269Z,15.60
2023-05-11T02:26:14.267Z,14.90
2023-05-11T02:27:16.633Z,16.40
2023-05-11T02:28:19.613Z,17.00
2023-05-11T02:29:21.993Z,0.60
2023-05-11T02:30:28.385Z,14.91
2023-05-11T02:31:34.616Z,17.00
2023-05-11T02:32:41.008Z,16.80
2023-05-11T02:33:46.371Z,18.40
2023-05-11T02:36:20.447Z,16.50
2023-05-11T02:37:24.915Z,16.00
2023-05-11T02:38:33.714Z,15.30
2023-05-11T02:39:39.871Z,13.60
2023-05-11T02:40:48.872Z,15.40
2023-05-11T02:41:57.133Z,13.80
2023-05-11T02:43:12.650Z,15.40
2023-05-11T02:44:18.317Z,13.20
2023-05-11T02:45:22.840Z,15.70
2023-05-11T02:46:28.762Z,15.10
2023-05-11T02:47:34.890Z,14.90
2023-05-11T02:48:40.848Z,14.00
2023-05-11T02:49:46.460Z,15.20
2023-05-11T02:50:51.924Z,16.20
2023-05-11T02:51:55.755Z,14.60
2023-05-11T02:53:01.741Z,16.00
2023-05-11T02:54:07.736Z,14.60
2023-05-11T02:55:14.681Z,13.50
2023-05-11T02:56:18.034Z,16.20
2023-05-11T02:57:20.779Z,16.30
2023-05-11T02:58:23.181Z,16.10
2023-05-11T02:59:28.017Z,15.70
2023-05-11T03:00:32.414Z,14.00
2023-05-11T03:01:35.068Z,14.50
2023-05-11T03:02:37.580Z,14.40
2023-05-11T03:03:40.800Z,15.30
2023-05-11T03:04:43.550Z,15.64
2023-05-11T03:05:45.866Z,13.80
2023-05-11T03:06:48.260Z,15.20
2023-05-11T03:07:52.851Z,14.20
2023-05-11T03:08:55.237Z,15.40
2023-05-11T03:09:58.406Z,13.36
2023-05-11T03:11:02.495Z,13.70
2023-05-11T03:12:05.870Z,13.00
2023-05-11T03:13:09.416Z,12.40
2023-05-11T03:14:12.502Z,13.70
2023-05-11T03:15:15.386Z,12.80
2023-05-11T03:16:21.427Z,14.60
2023-05-11T03:17:26.165Z,18.30
2023-05-11T03:18:30.529Z,20.20
2023-05-11T03:19:33.367Z,20.30
2023-05-11T03:20:39.363Z,16.60
2023-05-11T03:21:42.222Z,18.50
2023-05-11T03:22:45.938Z,22.00
2023-05-11T03:23:49.406Z,30.20
2023-05-11T03:24:52.278Z,62.82
2023-05-11T03:25:55.712Z,81.90
2023-05-11T03:26:59.980Z,95.36
2023-05-11T03:28:04.507Z,38.20
2023-05-11T03:29:08.183Z,87.00
2023-05-11T03:30:13.781Z,94.50
2023-05-11T03:31:19.468Z,84.70
2023-05-11T03:32:21.888Z,73.10
2023-05-11T03:33:25.127Z,45.80
2023-05-11T03:34:27.610Z,40.36
2023-05-11T03:35:32.796Z,36.50
2023-05-11T03:36:37.763Z,29.80
2023-05-11T03:37:42.422Z,26.30
2023-05-11T03:38:46.830Z,25.60
2023-05-11T03:39:54.284Z,24.90
2023-05-11T03:40:57.933Z,24.50
2023-05-11T03:42:02.624Z,25.20
2023-05-11T03:43:08.247Z,23.64
2023-05-11T03:44:12.636Z,23.20
2023-05-11T03:45:18.555Z,21.20
2023-05-11T03:46:22.767Z,19.00
2023-05-11T03:47:29.166Z,15.50
2023-05-11T03:48:32.499Z,13.20
2023-05-11T03:49:38.363Z,13.00
2023-05-11T03:50:41.431Z,11.20
2023-05-11T03:51:44.794Z,10.90
2023-05-11T03:52:48.294Z,11.30
2023-05-11T03:53:50.626Z,10.70
2023-05-11T03:54:53.107Z,11.40
2023-05-11T03:55:55.409Z,12.10
2023-05-11T03:56:58.142Z,7.90
2023-05-11T03:58:01.752Z,7.20
2023-05-11T03:59:05.397Z,11.60
2023-05-11T04:00:10.800Z,10.36
2023-05-11T04:01:19.564Z,9.40
2023-05-11T04:02:22.022Z,10.10
2023-05-11T04:03:25.059Z,12.18
2023-05-11T04:04:29.521Z,11.10
2023-05-11T04:05:33.250Z,11.60
2023-05-11T04:06:37.268Z,10.70
2023-05-11T04:07:47.420Z,11.70
2023-05-11T04:08:49.703Z,9.10
2023-05-11T04:09:52.484Z,11.70
2023-05-11T04:10:54.706Z,11.10
2023-05-11T04:11:57.509Z,11.90
2023-05-11T04:13:00.010Z,12.30
2023-05-11T04:14:02.419Z,13.10
2023-05-11T04:15:05.100Z,12.80
2023-05-11T04:16:07.922Z,12.60
2023-05-11T04:17:10.276Z,12.60
2023-05-11T04:18:12.607Z,13.70
2023-05-11T04:19:14.933Z,15.80
2023-05-11T04:20:17.536Z,12.60
2023-05-11T04:21:20.107Z,13.90
2023-05-11T04:22:23.042Z,15.45
2023-05-11T04:23:25.371Z,13.70
2023-05-11T04:24:27.466Z,14.40
2023-05-11T04:25:29.696Z,13.22
2023-05-11T04:26:32.693Z,13.40
2023-05-11T04:27:35.800Z,14.70
2023-05-11T04:28:39.375Z,13.60
2023-05-11T04:29:41.743Z,13.90
2023-05-11T04:30:44.041Z,13.70
2023-05-11T04:31:46.371Z,13.10
2023-05-11T04:32:48.767Z,12.80
2023-05-11T04:33:51.030Z,12.70
2023-05-11T04:34:54.205Z,12.10
2023-05-11T04:35:58.221Z,13.40
2023-05-11T04:37:01.176Z,12.60
2023-05-11T04:38:03.835Z,11.40
2023-05-11T04:39:08.147Z,12.40
2023-05-11T04:40:13.092Z,13.30
2023-05-11T04:41:17.082Z,15.00
2023-05-11T04:42:20.322Z,14.20
2023-05-11T04:43:24.360Z,14.40
2023-05-11T04:44:26.962Z,15.50
2023-05-11T04:45:29.591Z,15.80
2023-05-11T04:46:32.331Z,18.90
2023-05-11T04:47:34.686Z,19.40
2023-05-11T04:48:37.488Z,17.80
2023-05-11T04:49:39.994Z,19.90
2023-05-11T04:50:42.652Z,18.90
2023-05-11T04:51:45.725Z,17.30
2023-05-11T04:52:48.952Z,1.20
2023-05-11T04:53:52.397Z,16.60
2023-05-11T04:54:54.652Z,18.60
2023-05-11T04:55:57.926Z,15.50
2023-05-11T04:57:00.166Z,18.18
2023-05-11T04:58:02.449Z,18.30
2023-05-11T04:59:05.559Z,15.80
2023-05-11T05:00:09.232Z,17.70
2023-05-11T05:01:11.597Z,17.80
2023-05-11T05:02:15.063Z,18.70
2023-05-11T05:03:18.373Z,21.00
2023-05-11T05:04:21.384Z,20.20
2023-05-11T05:05:24.282Z,20.82
2023-05-11T05:06:26.585Z,21.20
2023-05-11T05:07:28.806Z,21.20
2023-05-11T05:08:31.532Z,21.30
2023-05-11T05:09:34.572Z,17.82
2023-05-11T05:10:36.808Z,16.90
2023-05-11T05:11:39.491Z,16.44
2023-05-11T05:12:41.769Z,15.60
2023-05-11T05:13:44.319Z,17.90
2023-05-11T05:14:47.194Z,17.50
2023-05-11T05:15:49.778Z,17.82
2023-05-11T05:16:52.326Z,17.30
2023-05-11T05:17:54.709Z,19.60
2023-05-11T05:18:57.888Z,18.70
2023-05-11T05:20:00.444Z,17.90
2023-05-11T05:21:02.755Z,16.90
2023-05-11T05:22:04.952Z,18.80
2023-05-11T05:23:07.267Z,16.00
2023-05-11T05:24:09.484Z,14.50
2023-05-11T05:25:11.799Z,13.10
2023-05-11T05:26:14.506Z,11.80
2023-05-11T05:27:16.823Z,10.90
2023-05-11T05:28:20.050Z,9.40
2023-05-11T05:29:22.688Z,8.50
2023-05-11T05:30:25.095Z,10.30
2023-05-11T05:31:27.450Z,7.30
2023-05-11T05:32:31.166Z,9.40
2023-05-11T05:33:34.496Z,9.20
2023-05-11T05:34:37.615Z,9.40
2023-05-11T05:35:39.934Z,9.18
2023-05-11T05:36:42.259Z,11.00
2023-05-11T05:37:49.199Z,13.20
2023-05-11T05:38:52.953Z,11.90
2023-05-11T05:39:58.248Z,12.00
2023-05-11T05:41:01.936Z,12.30
2023-05-11T05:42:08.182Z,11.80
2023-05-11T05:43:16.151Z,12.10
2023-05-11T05:44:20.479Z,12.20
2023-05-11T05:45:24.395Z,11.40
2023-05-11T05:46:27.433Z,9.30
2023-05-11T05:47:29.906Z,10.00
2023-05-11T05:48:36.172Z,11.30
2023-05-11T05:49:41.869Z,9.80
2023-05-11T05:50:48.877Z,9.80
2023-05-11T05:51:52.658Z,10.00
2023-05-11T05:52:58.226Z,10.70
2023-05-11T05:54:04.035Z,9.60
2023-05-11T05:55:11.960Z,9.50
2023-05-11T05:56:18.086Z,8.90
2023-05-11T05:57:22.396Z,8.50
2023-05-11T05:58:30.543Z,9.10
2023-05-11T05:59:34.093Z,9.00
2023-05-11T06:00:42.232Z,10.60
2023-05-11T06:01:45.100Z,8.90
2023-05-11T06:02:50.631Z,8.50
2023-05-11T06:03:59.021Z,10.20
2023-05-11T06:05:03.891Z,9.00
2023-05-11T06:06:10.921Z,8.40
2023-05-11T06:07:15.123Z,7.30
2023-05-11T06:08:17.332Z,7.00
2023-05-11T06:09:20.721Z,6.40
2023-05-11T06:10:23.496Z,6.90
2023-05-11T06:11:35.549Z,6.80
2023-05-11T06:12:40.071Z,5.90
2023-05-11T06:13:44.580Z,6.70
2023-05-11T06:14:46.850Z,0.80
2023-05-11T06:15:51.316Z,7.10
2023-05-11T06:16:57.769Z,6.00
2023-05-11T06:18:04.200Z,5.90
2023-05-11T06:19:10.044Z,4.90
2023-05-11T06:20:18.357Z,5.50
2023-05-11T06:21:24.579Z,5.80
2023-05-11T06:22:26.945Z,5.90
2023-05-11T06:23:31.959Z,6.00
2023-05-11T06:24:36.707Z,5.90
2023-05-11T06:25:41.859Z,5.50
2023-05-11T06:26:49.508Z,4.80
2023-05-11T06:27:54.625Z,4.50
2023-05-11T06:29:01.394Z,6.90
2023-05-11T06:30:07.546Z,5.00
2023-05-11T06:31:13.213Z,5.20
2023-05-11T06:32:18.210Z,5.10
2023-05-11T06:33:21.021Z,4.80
2023-05-11T06:34:24.140Z,4.30
2023-05-11T06:35:29.988Z,3.30
2023-05-11T06:36:33.494Z,4.00
2023-05-11T06:37:41.844Z,5.00
2023-05-11T06:38:45.444Z,4.00
2023-05-11T06:39:48.192Z,1.70
2023-05-11T06:40:56.795Z,4.00
2023-05-11T06:42:04.327Z,3.60
2023-05-11T06:43:08.651Z,4.80
2023-05-11T06:44:22.299Z,4.70
2023-05-11T06:45:27.523Z,4.80
2023-05-11T06:46:31.559Z,4.70
2023-05-11T06:47:35.136Z,4.00
2023-05-11T06:48:38.392Z,4.80
2023-05-11T06:49:47.600Z,3.90
2023-05-11T06:50:51.320Z,4.90
2023-05-11T06:51:56.316Z,4.80
2023-05-11T06:52:59.390Z,4.30
2023-05-11T06:54:07.512Z,4.40
2023-05-11T06:55:13.364Z,5.00
2023-05-11T06:57:29.176Z,4.90
2023-05-11T06:58:31.764Z,4.70
2023-05-11T06:59:34.080Z,3.90
2023-05-11T07:00:36.393Z,5.20
2023-05-11T07:01:38.703Z,5.00
2023-05-11T07:02:41.086Z,5.40
2023-05-11T07:03:43.690Z,5.10
2023-05-11T07:04:46.086Z,5.00
2023-05-11T07:05:48.293Z,4.00
2023-05-11T07:06:50.613Z,4.50
2023-05-11T07:07:52.953Z,5.40
2023-05-11T07:08:55.290Z,5.30
2023-05-11T07:09:57.947Z,4.80
2023-05-11T07:11:00.139Z,5.60
2023-05-11T07:12:02.564Z,5.50
2023-05-11T07:13:05.789Z,5.90
2023-05-11T07:14:08.097Z,5.60
2023-05-11T07:15:11.219Z,4.50
2023-05-11T07:16:14.063Z,4.40
2023-05-11T07:17:16.367Z,4.70
2023-05-11T07:18:18.609Z,4.60
2023-05-11T07:19:20.834Z,5.30
2023-05-11T07:20:23.210Z,3.30
2023-05-11T07:21:25.336Z,5.10
2023-05-11T07:22:27.696Z,4.10
2023-05-11T07:23:29.980Z,4.00
2023-05-11T07:24:32.868Z,4.90
2023-05-11T07:25:35.238Z,5.18
2023-05-11T07:26:37.426Z,5.30
2023-05-11T07:27:39.488Z,5.00
2023-05-11T07:28:41.773Z,4.70
2023-05-11T07:29:43.998Z,5.30
2023-05-11T07:30:47.255Z,5.10
2023-05-11T07:31:49.665Z,5.00
2023-05-11T07:32:52.050Z,4.80
2023-05-11T07:33:54.602Z,5.60
2023-05-11T07:34:57.044Z,5.20
2023-05-11T07:35:59.245Z,4.50
2023-05-11T07:37:01.509Z,4.50
2023-05-11T07:38:03.748Z,4.90
2023-05-11T07:39:06.098Z,4.50
2023-05-11T07:40:09.534Z,4.40
2023-05-11T07:41:12.777Z,4.40
2023-05-11T07:42:15.556Z,4.80
2023-05-11T07:43:18.388Z,3.50
2023-05-11T07:44:20.921Z,4.60
2023-05-11T07:45:23.190Z,5.40
2023-05-11T07:46:25.553Z,5.20
2023-05-11T07:47:27.797Z,4.10
2023-05-11T07:48:30.196Z,5.00
2023-05-11T07:49:42.936Z,5.20
2023-05-11T07:50:36.635Z,4.80
2023-05-11T07:51:39.026Z,4.00
2023-05-11T07:52:41.336Z,4.50
2023-05-11T07:53:43.528Z,4.70
2023-05-11T07:54:45.723Z,5.40
2023-05-11T07:55:48.733Z,4.00
2023-05-11T07:56:52.315Z,5.20
2023-05-11T07:57:54.880Z,3.30
2023-05-11T07:58:56.936Z,3.30
2023-05-11T07:59:59.615Z,3.60
2023-05-11T08:01:02.910Z,3.40
2023-05-11T08:02:07.356Z,3.70
2023-05-11T08:03:09.725Z,4.10
2023-05-11T08:04:11.950Z,3.80
2023-05-11T08:05:14.703Z,4.10
2023-05-11T08:06:17.186Z,3.55
2023-05-11T08:07:19.439Z,3.60
2023-05-11T08:08:21.627Z,3.40
2023-05-11T08:09:24.235Z,3.10
2023-05-11T08:10:26.844Z,3.90
2023-05-11T08:11:29.681Z,3.90
2023-05-11T08:12:32.388Z,3.50
2023-05-11T08:13:35.563Z,3.10
2023-05-11T08:14:37.836Z,4.60
2023-05-11T08:15:40.320Z,3.80
2023-05-11T08:16:42.554Z,3.80
2023-05-11T08:17:44.817Z,4.00
2023-05-11T08:18:47.159Z,4.50
2023-05-11T08:19:49.404Z,4.00
2023-05-11T08:20:51.893Z,3.00
2023-05-11T08:21:54.371Z,3.50
2023-05-11T08:22:56.966Z,3.90
2023-05-11T08:23:59.656Z,3.40
2023-05-11T08:25:02.243Z,3.90
2023-05-11T08:26:04.674Z,3.20
2023-05-11T08:27:06.817Z,3.60
2023-05-11T08:28:09.066Z,3.90
2023-05-11T08:29:11.787Z,4.00
2023-05-11T08:30:14.813Z,3.20
2023-05-11T08:31:18.623Z,3.80
2023-05-11T08:32:21.444Z,3.90
2023-05-11T08:34:28.778Z,2.90
2023-05-11T08:35:31.067Z,3.30
2023-05-11T08:36:33.973Z,3.80
2023-05-11T08:37:36.306Z,3.73
2023-05-11T08:38:39.354Z,3.50
2023-05-11T08:39:47.234Z,3.40
2023-05-11T08:40:45.778Z,3.00
2023-05-11T08:41:49.281Z,4.30
2023-05-11T08:42:56.293Z,3.30
2023-05-11T08:44:00.019Z,3.10
2023-05-11T08:45:04.727Z,3.10
2023-05-11T08:46:10.529Z,4.60
2023-05-11T08:48:18.454Z,3.40
2023-05-11T08:49:21.170Z,3.30
2023-05-11T08:50:23.797Z,4.00
2023-05-11T08:51:26.031Z,3.30
2023-05-11T08:52:28.209Z,3.00
2023-05-11T08:53:30.708Z,3.60
2023-05-11T08:54:32.854Z,3.40
2023-05-11T08:55:36.155Z,3.50
2023-05-11T08:56:41.254Z,3.50
2023-05-11T08:57:45.932Z,3.90
2023-05-11T08:58:49.968Z,4.10
2023-05-11T08:59:55.587Z,3.30
2023-05-11T09:00:58.853Z,4.20
2023-05-11T09:02:03.676Z,3.90
2023-05-11T09:03:06.262Z,4.30
2023-05-11T09:04:09.103Z,3.50
2023-05-11T09:05:13.100Z,3.82
2023-05-11T09:06:17.433Z,3.70
2023-05-11T09:07:23.661Z,3.60
2023-05-11T09:08:29.469Z,3.90
2023-05-11T09:09:31.781Z,3.50
2023-05-11T09:10:36.734Z,5.00
2023-05-11T09:11:39.455Z,4.00
2023-05-11T09:12:41.821Z,4.36
2023-05-11T09:13:44.256Z,4.00
2023-05-11T09:14:46.570Z,3.50
2023-05-11T09:15:48.833Z,3.90
2023-05-11T09:16:51.057Z,4.30
2023-05-11T09:17:53.319Z,4.60
2023-05-11T09:18:59.127Z,3.60
2023-05-11T09:20:06.387Z,3.70
2023-05-11T09:21:08.603Z,3.50
2023-05-11T09:22:10.806Z,4.60
2023-05-11T09:23:16.706Z,4.60
2023-05-11T09:24:20.715Z,3.00
2023-05-11T09:25:23.836Z,3.70
2023-05-11T09:26:26.963Z,3.80
2023-05-11T09:27:29.253Z,3.91
2023-05-11T09:28:35.880Z,4.20
2023-05-11T09:29:36.033Z,3.10
2023-05-11T09:30:38.281Z,3.70
2023-05-11T09:31:45.485Z,4.10
2023-05-11T09:34:20.222Z,3.90
2023-05-11T09:35:31.495Z,3.70
2023-05-11T09:36:33.977Z,3.40
2023-05-11T09:37:36.600Z,0.20
2023-05-11T09:38:38.762Z,3.50
2023-05-11T09:39:59.306Z,3.30
2023-05-11T09:40:56.009Z,3.70
2023-05-11T09:43:27.085Z,3.30
2023-05-11T09:44:32.412Z,3.00
2023-05-11T09:45:36.652Z,4.40
2023-05-11T09:46:43.561Z,4.20
2023-05-11T09:47:47.667Z,4.00
2023-05-11T09:48:59.709Z,4.00
2023-05-11T09:50:05.572Z,3.80
2023-05-11T09:51:07.804Z,3.70
2023-05-11T09:52:15.020Z,3.70
2023-05-11T09:53:17.392Z,4.00
2023-05-11T09:54:21.263Z,3.10
2023-05-11T09:55:24.057Z,3.30
2023-05-11T09:56:47.784Z,2.64
2023-05-11T09:57:59.471Z,3.60
2023-05-11T09:59:02.134Z,3.30
2023-05-11T10:00:08.550Z,3.70
2023-05-11T10:01:12.859Z,2.90
2023-05-11T10:02:26.754Z,3.60
2023-05-11T10:03:29.144Z,3.40
2023-05-11T10:04:32.820Z,3.60
2023-05-11T10:05:36.690Z,3.10
2023-05-11T10:06:47.824Z,3.20
2023-05-11T10:09:09.277Z,3.60
2023-05-11T10:10:13.323Z,3.20
2023-05-11T10:11:15.765Z,3.50
2023-05-11T10:12:22.185Z,3.60
2023-05-11T10:13:25.630Z,4.20
2023-05-11T10:14:29.994Z,3.00
2023-05-11T10:15:34.821Z,3.20
2023-05-11T10:16:39.128Z,3.50
2023-05-11T10:17:42.343Z,3.30
2023-05-11T10:18:45.680Z,3.90
2023-05-11T10:19:48.626Z,4.00
2023-05-11T10:20:51.143Z,3.91
2023-05-11T10:21:55.846Z,3.40
2023-05-11T10:22:58.562Z,3.80
2023-05-11T10:24:02.421Z,3.60
2023-05-11T10:25:07.324Z,3.90
2023-05-11T10:26:10.598Z,3.70
2023-05-11T10:27:13.714Z,3.90
2023-05-11T10:28:16.443Z,3.20
2023-05-11T10:29:20.363Z,3.00
2023-05-11T10:30:23.224Z,3.70
2023-05-11T10:31:26.126Z,3.27
2023-05-11T10:32:30.628Z,4.18
2023-05-11T10:33:34.208Z,3.73
2023-05-11T10:34:36.720Z,3.50
2023-05-11T10:35:39.612Z,4.00
2023-05-11T10:36:42.282Z,3.45
2023-05-11T10:37:46.822Z,3.30
2023-05-11T10:38:49.263Z,3.36
2023-05-11T10:39:51.793Z,3.80
2023-05-11T10:40:58.389Z,2.90
2023-05-11T10:42:27.047Z,3.70
2023-05-11T10:43:41.894Z,3.00
2023-05-11T10:44:47.694Z,3.40
2023-05-11T10:46:30.186Z,4.90
2023-05-11T10:47:43.978Z,4.10
2023-05-11T10:49:07.229Z,3.50
2023-05-11T10:50:19.822Z,3.70
2023-05-11T10:51:45.792Z,4.50
2023-05-11T10:53:01.032Z,4.30
2023-05-11T10:54:12.700Z,3.70
2023-05-11T10:55:36.448Z,3.30
2023-05-11T10:57:09.612Z,1.30
2023-05-11T10:58:15.496Z,2.90
2023-05-11T10:59:55.855Z,2.70
2023-05-11T11:01:01.955Z,3.40
2023-05-11T11:02:05.594Z,4.40
2023-05-11T11:03:11.638Z,5.70
2023-05-11T11:04:13.970Z,5.80
2023-05-11T11:05:33.747Z,6.00
2023-05-11T11:06:38.734Z,3.90
2023-05-11T11:08:01.723Z,4.20
2023-05-11T11:09:06.372Z,3.60
2023-05-11T11:10:12.180Z,3.50
2023-05-11T11:12:42.114Z,4.20
2023-05-11T11:13:58.936Z,3.60
2023-05-11T11:15:03.832Z,3.30
2023-05-11T11:16:08.220Z,2.80
2023-05-11T11:17:19.851Z,3.30
2023-05-11T11:18:30.554Z,3.90
2023-05-11T11:19:35.399Z,3.50
2023-05-11T11:22:00.482Z,3.50
2023-05-11T11:23:02.929Z,3.30
2023-05-11T11:24:05.847Z,3.70
2023-05-11T11:25:10.002Z,3.73
2023-05-11T11:26:14.745Z,3.30
2023-05-11T11:27:17.083Z,1.30
2023-05-11T11:28:21.286Z,2.90
2023-05-11T11:29:24.129Z,3.40
2023-05-11T11:30:30.223Z,4.27
2023-05-11T11:31:33.927Z,3.00
2023-05-11T11:32:36.316Z,3.50
2023-05-11T11:33:39.306Z,3.70
2023-05-11T11:34:41.539Z,3.55
2023-05-11T11:35:45.665Z,3.70
2023-05-11T11:37:01.415Z,3.80
2023-05-11T11:38:03.826Z,3.30
2023-05-11T11:39:07.404Z,3.80
2023-05-11T11:40:15.348Z,3.50
2023-05-11T11:41:18.416Z,3.10
2023-05-11T11:42:35.629Z,4.10
2023-05-11T11:43:44.337Z,4.00
2023-05-11T11:44:46.679Z,3.50
2023-05-11T11:47:22.836Z,1.90
2023-05-11T11:48:36.996Z,4.00
2023-05-11T11:49:44.396Z,3.20
2023-05-11T11:50:48.628Z,4.10
2023-05-11T11:51:50.912Z,3.50
2023-05-11T11:52:53.224Z,3.40
2023-05-11T11:54:00.499Z,3.20
2023-05-11T11:55:03.520Z,3.60
2023-05-11T11:56:09.737Z,3.40
2023-05-11T11:58:49.099Z,3.00
2023-05-11T11:59:52.628Z,3.70
2023-05-11T12:00:55.087Z,4.30
2023-05-11T12:01:59.250Z,3.30
2023-05-11T12:03:03.666Z,3.30
2023-05-11T12:04:19.007Z,3.10
2023-05-11T12:05:24.440Z,3.50
2023-05-11T12:06:30.713Z,3.20
2023-05-11T12:07:33.561Z,3.30
2023-05-11T12:08:37.680Z,2.64
2023-05-11T12:09:40.220Z,3.70
2023-05-11T12:10:43.466Z,3.36
2023-05-11T12:11:46.496Z,3.27
2023-05-11T12:14:01.952Z,3.30
2023-05-11T12:15:05.448Z,3.90
2023-05-11T12:16:12.697Z,4.10
2023-05-11T12:17:19.188Z,3.60
2023-05-11T12:18:22.423Z,3.20
2023-05-11T12:19:24.810Z,4.00
2023-05-11T12:20:26.986Z,2.00
2023-05-11T12:21:31.676Z,2.80
2023-05-11T12:22:35.869Z,4.20
2023-05-11T12:23:38.197Z,3.60
2023-05-11T12:24:40.757Z,2.80
2023-05-11T12:25:43.509Z,3.20
2023-05-11T12:26:45.643Z,3.60
2023-05-11T12:27:54.055Z,3.70
2023-05-11T12:29:13.969Z,4.10
2023-05-11T12:30:20.843Z,3.10
2023-05-11T12:31:23.125Z,4.10
2023-05-11T12:32:27.855Z,3.60
2023-05-11T12:33:30.357Z,2.90
2023-05-11T12:34:32.773Z,3.60
2023-05-11T12:35:35.057Z,3.20
2023-05-11T12:36:37.334Z,3.40
2023-05-11T12:37:43.305Z,2.60
2023-05-11T12:38:46.737Z,0.70
2023-05-11T12:39:53.828Z,3.00
2023-05-11T12:40:56.113Z,3.50
2023-05-11T12:41:58.836Z,3.60
2023-05-11T12:43:01.122Z,2.90
2023-05-11T12:44:03.516Z,3.40
2023-05-11T12:45:07.248Z,3.00
2023-05-11T12:46:10.111Z,3.30
2023-05-11T12:47:12.758Z,3.10
2023-05-11T12:48:15.468Z,1.70
2023-05-11T12:49:24.747Z,3.50
2023-05-11T12:50:24.575Z,2.60
2023-05-11T12:53:14.869Z,3.50
2023-05-11T12:55:42.191Z,3.60
2023-05-11T12:58:14.500Z,4.00
2023-05-11T12:59:25.828Z,4.00
2023-05-11T13:00:29.098Z,3.00
2023-05-11T13:01:31.409Z,3.90
2023-05-11T13:02:33.937Z,3.90
2023-05-11T13:03:36.615Z,3.70
2023-05-11T13:04:40.615Z,3.30
2023-05-11T13:05:42.924Z,3.50
2023-05-11T13:06:46.090Z,3.90
2023-05-11T13:07:56.767Z,3.80
2023-05-11T13:08:58.993Z,3.10
2023-05-11T13:10:01.339Z,3.50
2023-05-11T13:12:33.869Z,3.30
2023-05-11T13:13:36.274Z,3.00
2023-05-11T13:14:39.511Z,2.60
2023-05-11T13:15:51.262Z,3.30
2023-05-11T13:16:53.517Z,3.40
2023-05-11T13:19:13.259Z,3.20
2023-05-11T13:20:32.097Z,4.36
2023-05-11T13:21:34.343Z,3.60
2023-05-11T13:22:37.118Z,3.90
2023-05-11T13:23:39.297Z,3.40
2023-05-11T13:24:41.517Z,3.10
2023-05-11T13:25:50.498Z,3.60
2023-05-11T13:26:53.504Z,3.50
2023-05-11T13:27:55.754Z,2.82
2023-05-11T13:29:09.496Z,2.70
2023-05-11T13:30:03.367Z,3.70
2023-05-11T13:31:05.730Z,2.80
2023-05-11T13:32:08.005Z,3.60
2023-05-11T13:33:10.370Z,3.50
2023-05-11T13:34:12.698Z,2.70
2023-05-11T13:35:15.984Z,3.00
2023-05-11T13:36:19.176Z,3.70
2023-05-11T13:37:21.372Z,3.00
2023-05-11T13:38:23.529Z,3.80
2023-05-11T13:39:25.526Z,3.50
2023-05-11T13:40:28.657Z,4.00
2023-05-11T13:41:31.533Z,3.10
2023-05-11T13:42:33.903Z,3.00
2023-05-11T13:43:36.465Z,3.70
2023-05-11T13:44:38.654Z,3.90
2023-05-11T13:45:41.540Z,3.00
2023-05-11T13:46:44.045Z,3.82
2023-05-11T13:47:46.826Z,2.80
2023-05-11T13:48:49.233Z,3.18
2023-05-11T13:49:51.395Z,3.40
2023-05-11T13:50:53.705Z,3.30
2023-05-11T13:51:55.882Z,2.60
2023-05-11T13:52:58.458Z,3.00
2023-05-11T13:54:01.377Z,3.00
2023-05-11T13:55:04.136Z,2.40
2023-05-11T13:56:07.144Z,3.73
2023-05-11T13:57:09.611Z,2.64
2023-05-11T13:58:11.860Z,3.50
2023-05-11T13:59:14.010Z,4.50
2023-05-11T14:00:17.924Z,3.20
2023-05-11T14:01:20.811Z,2.80
2023-05-11T14:02:23.177Z,3.82
2023-05-11T14:03:26.584Z,3.00
2023-05-11T14:04:29.251Z,2.80
2023-05-11T14:05:32.578Z,2.00
2023-05-11T14:06:35.355Z,3.50
2023-05-11T14:07:47.140Z,3.91
2023-05-11T14:08:41.833Z,2.80
2023-05-11T14:09:43.981Z,3.00
2023-05-11T14:10:46.275Z,3.00
2023-05-11T14:11:48.452Z,3.10
2023-05-11T14:12:51.021Z,2.70
2023-05-11T14:13:53.356Z,2.90
2023-05-11T14:14:55.390Z,0.80
2023-05-11T14:15:57.596Z,2.70
2023-05-11T14:16:59.755Z,2.90
2023-05-11T14:18:02.263Z,2.20
2023-05-11T14:19:04.672Z,3.70
2023-05-11T14:20:08.276Z,2.82
2023-05-11T14:21:10.584Z,3.70
2023-05-11T14:22:12.782Z,3.10
2023-05-11T14:23:15.899Z,2.80
2023-05-11T14:24:18.683Z,3.10
2023-05-11T14:25:21.360Z,2.10
2023-05-11T14:26:23.779Z,2.55
2023-05-11T14:27:26.093Z,2.10
2023-05-11T14:28:28.179Z,2.70
2023-05-11T14:29:30.457Z,2.80
2023-05-11T14:30:32.623Z,2.70
2023-05-11T14:31:35.440Z,2.60
2023-05-11T14:32:37.675Z,2.90
2023-05-11T14:33:39.972Z,2.80
2023-05-11T14:34:42.841Z,2.90
2023-05-11T14:35:47.639Z,2.73
2023-05-11T14:36:50.079Z,3.40
2023-05-11T14:37:52.123Z,2.10
2023-05-11T14:38:54.233Z,2.60
2023-05-11T14:39:56.520Z,2.80
2023-05-11T14:40:58.721Z,1.80
2023-05-11T14:42:00.882Z,3.10
2023-05-11T14:43:03.503Z,3.00